createdAt,value
2023-04-07T00:01:11.122Z,2.54
2023-04-07T00:03:41.054Z,2.40
2023-04-07T00:06:08.892Z,2.13
2023-04-07T00:08:36.710Z,2.73
2023-04-07T00:11:04.450Z,2.41
2023-04-07T00:13:32.211Z,2.68
2023-04-07T00:15:59.958Z,2.19
2023-04-07T00:18:27.680Z,2.32
2023-04-07T00:20:55.574Z,2.08
2023-04-07T00:23:23.308Z,2.01
2023-04-07T00:25:51.030Z,2.26
2023-04-07T00:28:18.789Z,2.22
2023-04-07T00:30:46.578Z,1.95
2023-04-07T00:33:14.391Z,1.83
2023-04-07T00:35:42.143Z,2.08
2023-04-07T00:38:09.931Z,2.49
2023-04-07T00:40:37.756Z,2.31
2023-04-07T00:43:05.509Z,2.50
2023-04-07T00:45:33.301Z,2.78
2023-04-07T00:48:01.042Z,2.86
2023-04-07T00:50:29.313Z,1.95
2023-04-07T00:52:57.149Z,2.28
2023-04-07T00:55:24.966Z,2.36
2023-04-07T00:57:52.700Z,2.05
2023-04-07T01:00:20.581Z,1.92
2023-04-07T01:02:54.174Z,1.76
2023-04-07T01:05:35.054Z,2.15
2023-04-07T01:08:16.016Z,1.96
2023-04-07T01:11:12.120Z,2.03
2023-04-07T01:13:46.488Z,1.67
2023-04-07T01:16:31.291Z,1.04
2023-04-07T01:19:03.961Z,1.01
2023-04-07T01:21:33.652Z,1.63
2023-04-07T01:24:34.595Z,1.69
2023-04-07T01:27:21.817Z,1.52
2023-04-07T01:29:50.686Z,1.19
2023-04-07T01:32:20.404Z,1.13
2023-04-07T01:34:49.307Z,0.91
2023-04-07T01:37:16.996Z,0.93
2023-04-07T01:39:44.800Z,1.05
2023-04-07T01:42:12.809Z,1.25
2023-04-07T01:44:40.953Z,0.81
2023-04-07T01:47:08.894Z,0.61
2023-04-07T01:49:36.936Z,0.80
2023-04-07T01:52:04.998Z,0.30
2023-04-07T01:54:32.698Z,0.86
2023-04-07T01:57:01.591Z,1.10
2023-04-07T01:59:30.357Z,0.66
2023-04-07T02:02:00.055Z,1.17
2023-04-07T02:04:49.298Z,1.36
2023-04-07T02:07:22.552Z,0.47
2023-04-07T02:09:52.075Z,0.69
2023-04-07T02:12:19.886Z,0.65
2023-04-07T02:15:08.836Z,0.57
2023-04-07T02:17:38.034Z,0.81
2023-04-07T02:20:09.511Z,0.28
2023-04-07T02:22:39.156Z,0.84
2023-04-07T02:25:27.958Z,1.06
2023-04-07T02:27:56.629Z,0.87
2023-04-07T02:30:24.438Z,0.55
2023-04-07T02:32:52.783Z,0.88
2023-04-07T02:35:21.249Z,0.48
2023-04-07T02:37:49.192Z,0.71
2023-04-07T02:40:16.964Z,0.96
2023-04-07T02:42:44.745Z,0.25
2023-04-07T02:45:12.458Z,0.06
2023-04-07T02:47:40.313Z,0.82
2023-04-07T02:50:08.243Z,1.30
2023-04-07T02:52:36.867Z,1.00
2023-04-07T02:55:11.277Z,0.10
2023-04-07T02:57:39.154Z,0.87
2023-04-07T03:00:11.718Z,-0.03
2023-04-07T03:02:54.310Z,0.25
2023-04-07T03:05:22.314Z,0.47
2023-04-07T03:07:50.071Z,0.59
2023-04-07T03:10:18.007Z,0.72
2023-04-07T03:12:45.788Z,-0.12
2023-04-07T03:15:13.549Z,0.07
2023-04-07T03:17:46.557Z,-0.90
2023-04-07T03:20:14.385Z,0.05
2023-04-07T03:22:42.204Z,0.59
2023-04-07T03:25:16.325Z,0.94
2023-04-07T03:27:44.171Z,0.41
2023-04-07T03:30:14.967Z,0.78
2023-04-07T03:32:44.073Z,0.03
2023-04-07T03:35:12.049Z,0.13
2023-04-07T03:37:39.836Z,0.23
2023-04-07T03:40:13.292Z,0.31
2023-04-07T03:42:41.753Z,0.50
2023-04-07T03:45:12.249Z,0.30
2023-04-07T03:47:44.220Z,0.13
2023-04-07T03:50:13.191Z,-0.26
2023-04-07T03:52:59.079Z,0.38
2023-04-07T03:55:30.420Z,-0.09
2023-04-07T03:58:03.611Z,0.40
2023-04-07T04:00:34.603Z,0.13
2023-04-07T04:03:09.189Z,0.11
2023-04-07T04:05:42.809Z,0.64
2023-04-07T04:08:15.715Z,0.62
2023-04-07T04:10:43.795Z,-0.13
2023-04-07T04:13:11.757Z,-0.04
2023-04-07T04:15:39.672Z,-0.11
2023-04-07T04:18:13.205Z,0.16
2023-04-07T04:20:40.981Z,-0.01
2023-04-07T04:23:09.616Z,-0.14
2023-04-07T04:25:39.777Z,-0.23
2023-04-07T04:28:10.990Z,-0.03
2023-04-07T04:30:38.997Z,-0.55
2023-04-07T04:33:07.365Z,-0.22
2023-04-07T04:35:45.300Z,-0.45
2023-04-07T04:38:16.774Z,0.32
2023-04-07T04:40:50.915Z,0.48
2023-04-07T04:43:23.009Z,0.62
2023-04-07T04:45:51.698Z,0.62
2023-04-07T04:48:22.772Z,1.05
2023-04-07T04:50:50.484Z,1.13
2023-04-07T04:53:18.416Z,0.53
2023-04-07T04:55:53.127Z,1.00
2023-04-07T04:58:31.308Z,1.42
2023-04-07T05:01:00.457Z,1.20
2023-04-07T05:03:42.795Z,0.89
2023-04-07T05:06:19.358Z,1.09
2023-04-07T05:08:49.417Z,1.03
2023-04-07T05:11:21.440Z,1.06
2023-04-07T05:13:52.877Z,0.98
2023-04-07T05:16:20.971Z,1.10
2023-04-07T05:18:49.021Z,1.31
2023-04-07T05:21:20.146Z,1.61
2023-04-07T05:23:48.421Z,1.99
2023-04-07T05:26:16.639Z,2.02
2023-04-07T05:28:44.753Z,2.39
2023-04-07T05:31:17.732Z,2.35
2023-04-07T05:33:47.727Z,2.67
2023-04-07T05:36:16.833Z,2.79
2023-04-07T05:38:44.657Z,2.94
2023-04-07T05:41:17.176Z,2.82
2023-04-07T05:43:44.947Z,2.99
2023-04-07T05:46:13.013Z,3.07
2023-04-07T05:48:48.931Z,3.27
2023-04-07T05:51:17.454Z,2.64
2023-04-07T05:53:45.852Z,3.04
2023-04-07T05:56:13.856Z,3.54
2023-04-07T05:58:50.556Z,3.71
2023-04-07T06:01:19.893Z,3.65
2023-04-07T06:03:48.854Z,3.33
2023-04-07T06:06:27.873Z,3.22
2023-04-07T06:08:55.746Z,3.39
2023-04-07T06:11:26.337Z,3.62
2023-04-07T06:13:54.260Z,3.84
2023-04-07T06:16:21.985Z,4.02
2023-04-07T06:18:50.166Z,4.15
2023-04-07T06:21:17.825Z,3.98
2023-04-07T06:23:45.624Z,4.04
2023-04-07T06:26:13.308Z,4.20
2023-04-07T06:28:41.205Z,4.26
2023-04-07T06:31:09.246Z,3.65
2023-04-07T06:33:38.284Z,3.82
2023-04-07T06:36:06.217Z,3.66
2023-04-07T06:38:33.940Z,4.17
2023-04-07T06:41:03.098Z,3.81
2023-04-07T06:43:31.518Z,4.52
2023-04-07T06:46:03.702Z,4.41
2023-04-07T06:48:31.437Z,4.54
2023-04-07T06:50:59.097Z,5.10
2023-04-07T07:06:00.780Z,4.73
2023-04-07T07:08:29.087Z,5.33
2023-04-07T07:10:56.825Z,4.44
2023-04-07T07:13:25.357Z,4.12
2023-04-07T07:15:53.118Z,4.50
2023-04-07T07:18:20.917Z,4.34
2023-04-07T07:20:48.861Z,4.16
2023-04-07T07:23:16.595Z,4.47
2023-04-07T07:25:44.699Z,3.68
2023-04-07T07:28:12.548Z,4.14
2023-04-07T07:30:41.488Z,4.15
2023-04-07T07:33:09.264Z,4.59
2023-04-07T07:35:37.989Z,4.91
2023-04-07T07:38:05.798Z,4.62
2023-04-07T07:40:33.717Z,4.84
2023-04-07T07:43:01.487Z,4.51
2023-04-07T07:45:29.307Z,4.96
2023-04-07T07:47:57.396Z,5.00
2023-04-07T07:50:25.336Z,5.57
2023-04-07T07:52:53.056Z,5.84
2023-04-07T07:55:21.023Z,5.40
2023-04-07T07:57:48.937Z,5.82
2023-04-07T08:00:17.201Z,5.44
2023-04-07T08:02:45.293Z,5.75
2023-04-07T08:05:12.988Z,6.01
2023-04-07T08:07:40.810Z,6.40
2023-04-07T08:10:08.998Z,6.81
2023-04-07T08:12:36.805Z,6.50
2023-04-07T08:15:05.024Z,6.72
2023-04-07T08:17:32.788Z,6.30
2023-04-07T08:20:01.255Z,6.86
2023-04-07T08:22:28.914Z,6.63
2023-04-07T08:24:56.789Z,6.88
2023-04-07T08:27:24.496Z,7.18
2023-04-07T08:30:02.223Z,6.41
2023-04-07T08:32:43.634Z,6.38
2023-04-07T08:35:11.855Z,6.32
2023-04-07T08:37:39.794Z,6.39
2023-04-07T08:40:07.860Z,6.11
2023-04-07T08:42:36.372Z,6.59
2023-04-07T08:45:05.388Z,5.92
2023-04-07T08:47:34.065Z,6.29
2023-04-07T08:50:10.102Z,6.00
2023-04-07T08:52:59.900Z,5.40
2023-04-07T08:55:27.798Z,5.82
2023-04-07T08:57:55.564Z,6.14
2023-04-07T09:00:23.339Z,6.47
2023-04-07T09:02:51.881Z,6.63
2023-04-07T09:05:21.468Z,6.41
2023-04-07T09:07:49.279Z,5.71
2023-04-07T09:10:17.791Z,6.12
2023-04-07T09:12:45.483Z,6.24
2023-04-07T09:15:13.242Z,6.07
2023-04-07T09:17:40.938Z,6.15
2023-04-07T09:20:09.208Z,6.41
2023-04-07T09:22:40.601Z,6.18
2023-04-07T09:25:26.485Z,6.91
2023-04-07T09:27:58.338Z,6.67
2023-04-07T09:30:26.323Z,6.67
2023-04-07T09:32:54.142Z,6.39
2023-04-07T09:35:23.942Z,5.82
2023-04-07T09:38:08.418Z,6.41
2023-04-07T09:40:36.830Z,6.59
2023-04-07T09:43:05.669Z,6.61
2023-04-07T09:45:36.234Z,5.91
2023-04-07T09:48:08.876Z,6.74
2023-04-07T09:50:41.275Z,6.79
2023-04-07T09:53:09.348Z,7.07
2023-04-07T09:55:37.175Z,7.78
2023-04-07T09:58:04.929Z,7.77
2023-04-07T10:00:32.791Z,7.54
2023-04-07T10:03:00.645Z,7.45
2023-04-07T10:05:28.544Z,6.84
2023-04-07T10:07:56.426Z,6.37
2023-04-07T10:10:25.000Z,6.67
2023-04-07T10:12:52.932Z,6.26
2023-04-07T10:15:20.877Z,6.34
2023-04-07T10:17:48.730Z,6.77
2023-04-07T10:20:21.185Z,6.31
2023-04-07T10:22:51.404Z,6.47
2023-04-07T10:25:20.730Z,6.87
2023-04-07T10:27:55.331Z,7.07
2023-04-07T10:30:31.629Z,7.19
2023-04-07T10:32:59.564Z,7.23
2023-04-07T10:35:28.474Z,7.24
2023-04-07T10:38:08.494Z,8.23
2023-04-07T10:40:37.215Z,7.39
2023-04-07T10:43:06.537Z,7.47
2023-04-07T10:45:47.007Z,7.26
2023-04-07T10:48:18.546Z,7.19
2023-04-07T10:50:46.926Z,7.33
2023-04-07T10:53:15.464Z,6.85
2023-04-07T10:55:46.840Z,6.93
2023-04-07T10:58:24.192Z,7.05
2023-04-07T11:01:04.181Z,6.97
2023-04-07T11:03:54.563Z,7.16
2023-04-07T11:06:23.162Z,7.20
2023-04-07T11:08:51.103Z,7.63
2023-04-07T11:11:38.999Z,7.05
2023-04-07T11:14:06.759Z,7.00
2023-04-07T11:16:42.320Z,7.49
2023-04-07T11:19:10.175Z,7.34
2023-04-07T11:21:38.003Z,7.48
2023-04-07T11:24:05.854Z,7.56
2023-04-07T11:26:42.718Z,7.15
2023-04-07T11:29:12.213Z,8.02
2023-04-07T11:31:40.294Z,7.07
2023-04-07T11:34:08.876Z,7.85
2023-04-07T11:36:40.942Z,7.75
2023-04-07T11:39:19.314Z,8.15
2023-04-07T11:41:48.206Z,7.59
2023-04-07T11:44:16.025Z,7.52
2023-04-07T11:46:56.991Z,7.59
2023-04-07T11:49:26.086Z,7.88
2023-04-07T11:52:07.198Z,8.09
2023-04-07T11:54:42.210Z,8.43
2023-04-07T11:57:13.176Z,7.77
2023-04-07T11:59:41.273Z,7.85
2023-04-07T12:02:09.633Z,7.87
2023-04-07T12:04:40.247Z,8.30
2023-04-07T12:07:09.221Z,8.01
2023-04-07T12:09:37.828Z,8.12
2023-04-07T12:12:07.125Z,8.19
2023-04-07T12:14:35.260Z,8.21
2023-04-07T12:17:03.840Z,8.19
2023-04-07T12:19:35.843Z,8.68
2023-04-07T12:22:04.024Z,8.08
2023-04-07T12:24:32.524Z,8.13
2023-04-07T12:27:00.430Z,8.26
2023-04-07T12:29:28.203Z,8.41
2023-04-07T12:31:56.618Z,8.76
2023-04-07T12:34:24.344Z,8.66
2023-04-07T12:36:52.438Z,8.95
2023-04-07T12:39:20.136Z,9.04
2023-04-07T12:41:49.177Z,8.96
2023-04-07T12:44:16.885Z,8.92
2023-04-07T12:46:44.629Z,8.52
2023-04-07T12:49:12.385Z,8.61
2023-04-07T12:51:40.421Z,8.35
2023-04-07T12:54:08.151Z,9.39
2023-04-07T12:56:36.666Z,9.73
2023-04-07T12:59:04.331Z,8.78
2023-04-07T13:01:33.213Z,8.71
2023-04-07T13:04:02.101Z,9.32
2023-04-07T13:06:30.792Z,8.45
2023-04-07T13:08:58.570Z,8.53
2023-04-07T13:11:26.448Z,8.49
2023-04-07T13:13:56.216Z,8.74
2023-04-07T13:16:25.181Z,8.54
2023-04-07T13:18:53.219Z,8.25
2023-04-07T13:21:43.917Z,8.54
2023-04-07T13:24:09.611Z,8.71
2023-04-07T13:26:37.283Z,9.41
2023-04-07T13:29:05.138Z,9.25
2023-04-07T13:31:32.897Z,8.46
2023-04-07T13:34:00.803Z,8.29
2023-04-07T13:36:28.735Z,8.29
2023-04-07T13:38:56.986Z,7.73
2023-04-07T13:41:24.727Z,8.33
2023-04-07T13:43:52.532Z,8.28
2023-04-07T13:46:28.588Z,8.09
2023-04-07T13:48:57.134Z,8.03
2023-04-07T13:51:24.896Z,7.79
2023-04-07T13:53:52.622Z,8.05
2023-04-07T13:56:22.349Z,8.47
2023-04-07T13:58:50.614Z,7.61
2023-04-07T14:01:18.355Z,7.31
2023-04-07T14:03:47.004Z,7.58
2023-04-07T14:06:15.012Z,7.52
2023-04-07T14:08:42.855Z,8.16
2023-04-07T14:11:10.513Z,8.42
2023-04-07T14:13:38.270Z,8.52
2023-04-07T14:16:06.342Z,8.37
2023-04-07T14:18:34.156Z,8.35
2023-04-07T14:21:03.296Z,8.69
2023-04-07T14:23:37.423Z,8.81
2023-04-07T14:26:05.788Z,8.46
2023-04-07T14:28:33.647Z,8.98
2023-04-07T14:31:02.067Z,8.90
2023-04-07T14:33:29.993Z,8.54
2023-04-07T14:35:57.782Z,9.10
2023-04-07T14:38:26.023Z,8.97
2023-04-07T14:40:53.817Z,8.79
2023-04-07T14:43:21.751Z,8.95
2023-04-07T14:45:49.429Z,9.09
2023-04-07T14:48:17.432Z,9.07
2023-04-07T14:50:46.108Z,8.58
2023-04-07T14:53:14.695Z,8.43
2023-04-07T14:55:42.640Z,8.54
2023-04-07T14:58:10.418Z,7.89
2023-04-07T15:00:38.163Z,7.05
2023-04-07T15:03:06.224Z,7.98
2023-04-07T15:05:34.153Z,8.66
2023-04-07T15:08:01.865Z,7.78
2023-04-07T15:10:30.241Z,8.35
2023-04-07T15:12:58.026Z,8.37
2023-04-07T15:15:25.705Z,8.68
2023-04-07T15:17:53.493Z,8.66
2023-04-07T15:20:21.276Z,8.39
2023-04-07T15:22:49.073Z,8.46
2023-04-07T15:25:16.743Z,8.28
2023-04-07T15:27:44.479Z,8.43
2023-04-07T15:30:12.605Z,8.61
2023-04-07T15:32:40.405Z,7.94
2023-04-07T15:35:08.533Z,8.19
2023-04-07T15:37:36.389Z,8.15
2023-04-07T15:40:04.404Z,8.04
2023-04-07T15:42:34.349Z,6.64
2023-04-07T15:45:02.178Z,6.95
2023-04-07T15:47:29.980Z,7.32
2023-04-07T15:49:57.671Z,6.97
2023-04-07T15:52:25.434Z,7.21
2023-04-07T15:54:53.160Z,7.39
2023-04-07T15:57:22.139Z,7.38
2023-04-07T15:59:49.853Z,7.66
2023-04-07T16:02:17.720Z,7.24
2023-04-07T16:04:47.458Z,7.86
2023-04-07T16:07:15.327Z,8.12
2023-04-07T16:09:43.138Z,7.98
2023-04-07T16:12:10.931Z,7.11
2023-04-07T16:14:38.620Z,7.72
2023-04-07T16:17:06.410Z,6.97
2023-04-07T16:19:34.220Z,6.91
2023-04-07T16:22:01.906Z,6.85
2023-04-07T16:24:29.927Z,7.47
2023-04-07T16:26:57.704Z,7.87
2023-04-07T16:29:25.477Z,7.91
2023-04-07T16:31:53.190Z,7.46
2023-04-07T16:34:21.256Z,7.54
2023-04-07T16:36:50.338Z,7.77
2023-04-07T16:39:18.391Z,7.77
2023-04-07T16:41:46.114Z,7.86
2023-04-07T16:44:13.877Z,7.97
2023-04-07T16:46:41.638Z,7.84
2023-04-07T16:49:10.825Z,7.86
2023-04-07T16:51:38.768Z,8.05
2023-04-07T16:54:06.554Z,8.13
2023-04-07T16:56:34.262Z,8.19
2023-04-07T16:59:03.897Z,8.15
2023-04-07T17:01:31.973Z,8.01
2023-04-07T17:03:59.846Z,8.06
2023-04-07T17:06:27.657Z,8.04
2023-04-07T17:08:55.503Z,7.63
2023-04-07T17:11:23.217Z,6.99
2023-04-07T17:13:56.407Z,6.80
2023-04-07T17:16:25.460Z,6.80
2023-04-07T17:18:53.193Z,7.04
2023-04-07T17:21:20.871Z,6.25
2023-04-07T17:23:49.097Z,6.45
2023-04-07T17:26:16.992Z,6.37
2023-04-07T17:28:46.235Z,6.81
2023-04-07T17:31:14.384Z,5.92
2023-04-07T17:33:42.170Z,7.10
2023-04-07T17:36:09.950Z,7.41
2023-04-07T17:38:37.763Z,7.41
2023-04-07T17:41:06.567Z,7.54
2023-04-07T17:43:34.595Z,7.66
2023-04-07T17:46:03.722Z,7.65
2023-04-07T17:48:32.206Z,7.67
2023-04-07T17:51:00.104Z,7.36
2023-04-07T17:53:27.908Z,7.47
2023-04-07T17:55:56.018Z,7.45
2023-04-07T17:58:23.736Z,7.44
2023-04-07T18:00:51.482Z,7.63
2023-04-07T18:03:19.550Z,7.43
2023-04-07T18:05:47.732Z,7.41
2023-04-07T18:08:15.456Z,7.42
2023-04-07T18:10:43.350Z,7.56
2023-04-07T18:13:11.187Z,7.22
2023-04-07T18:15:39.059Z,7.39
2023-04-07T18:18:06.884Z,7.30
2023-04-07T18:20:36.113Z,7.33
2023-04-07T18:23:03.930Z,7.07
2023-04-07T18:25:31.652Z,7.19
2023-04-07T18:27:59.513Z,7.18
2023-04-07T18:30:27.318Z,7.05
2023-04-07T18:32:55.327Z,6.89
2023-04-07T18:35:23.181Z,6.77
2023-04-07T18:37:50.890Z,7.09
2023-04-07T18:40:18.581Z,6.88
2023-04-07T18:42:46.405Z,7.21
2023-04-07T18:45:14.239Z,7.07
2023-04-07T18:47:42.205Z,6.93
2023-04-07T18:50:10.202Z,7.07
2023-04-07T18:52:37.867Z,6.51
2023-04-07T18:55:06.226Z,6.44
2023-04-07T18:57:33.886Z,6.32
2023-04-07T19:00:01.977Z,6.33
2023-04-07T19:02:29.814Z,6.62
2023-04-07T19:04:57.681Z,6.67
2023-04-07T19:07:25.380Z,6.71
2023-04-07T19:09:53.919Z,6.78
2023-04-07T19:12:22.250Z,6.77
2023-04-07T19:14:50.024Z,6.78
2023-04-07T19:17:17.729Z,6.57
2023-04-07T19:19:46.094Z,6.38
2023-04-07T19:22:13.847Z,6.21
2023-04-07T19:24:41.708Z,6.16
2023-04-07T19:27:09.420Z,6.23
2023-04-07T19:29:37.175Z,6.09
2023-04-07T19:32:05.951Z,5.94
2023-04-07T19:34:33.833Z,5.77
2023-04-07T19:37:01.551Z,5.71
2023-04-07T19:39:29.362Z,5.67
2023-04-07T19:41:57.644Z,5.71
2023-04-07T19:44:26.161Z,5.84
2023-04-07T19:46:53.815Z,5.35
2023-04-07T19:49:21.961Z,5.41
2023-04-07T19:51:52.317Z,5.39
2023-04-07T19:54:20.100Z,5.79
2023-04-07T19:56:47.811Z,5.98
2023-04-07T19:59:15.637Z,6.08
2023-04-07T20:01:43.431Z,6.35
2023-04-07T20:04:11.397Z,6.38
2023-04-07T20:06:40.606Z,6.01
2023-04-07T20:09:08.462Z,6.26
2023-04-07T20:11:36.159Z,6.27
2023-04-07T20:14:03.902Z,6.21
2023-04-07T20:16:32.400Z,6.02
2023-04-07T20:19:00.307Z,5.98
2023-04-07T20:21:28.413Z,5.63
2023-04-07T20:23:56.459Z,5.85
2023-04-07T20:26:24.488Z,5.84
2023-04-07T20:28:52.287Z,5.94
2023-04-07T20:31:20.065Z,5.79
2023-04-07T20:33:47.922Z,5.81
2023-04-07T20:36:15.625Z,5.80
2023-04-07T20:38:43.960Z,5.94
2023-04-07T20:41:13.186Z,6.12
2023-04-07T20:43:41.162Z,5.85
2023-04-07T20:46:08.935Z,5.46
2023-04-07T20:48:36.670Z,5.47
2023-04-07T20:51:04.403Z,5.75
2023-04-07T20:53:32.241Z,5.74
2023-04-07T20:56:00.263Z,5.92
2023-04-07T20:58:28.279Z,5.93
2023-04-07T21:00:57.042Z,5.98
2023-04-07T21:03:28.223Z,6.01
2023-04-07T21:05:57.343Z,5.93
2023-04-07T21:08:25.384Z,6.09
2023-04-07T21:10:53.419Z,6.03
2023-04-07T21:13:22.543Z,6.13
2023-04-07T21:15:50.342Z,6.05
2023-04-07T21:18:19.165Z,5.83
2023-04-07T21:20:47.340Z,5.84
2023-04-07T21:23:14.999Z,5.82
2023-04-07T21:25:42.773Z,5.95
2023-04-07T21:28:10.596Z,5.96
2023-04-07T21:30:43.925Z,5.86
2023-04-07T21:33:13.572Z,6.00
2023-04-07T21:35:41.391Z,5.85
2023-04-07T21:38:09.080Z,6.06
2023-04-07T21:40:36.762Z,5.93
2023-04-07T21:43:04.468Z,5.99
2023-04-07T21:45:32.185Z,6.02
2023-04-07T21:47:59.881Z,6.02
2023-04-07T21:50:27.668Z,5.97
2023-04-07T21:52:55.487Z,6.06
2023-04-07T21:55:23.273Z,6.12
2023-04-07T21:57:51.396Z,6.01
2023-04-07T22:00:19.368Z,6.00
2023-04-07T22:02:47.335Z,5.98
2023-04-07T22:05:15.599Z,5.95
2023-04-07T22:07:44.966Z,5.95
2023-04-07T22:10:12.973Z,6.07
2023-04-07T22:12:41.091Z,6.03
2023-04-07T22:15:10.585Z,5.56
2023-04-07T22:17:40.030Z,5.65
2023-04-07T22:20:10.134Z,5.93
2023-04-07T22:22:37.938Z,5.69
2023-04-07T22:25:06.738Z,5.71
2023-04-07T22:27:35.349Z,5.57
2023-04-07T22:30:03.588Z,5.59
2023-04-07T22:32:31.292Z,5.71
2023-04-07T22:34:59.044Z,5.53
2023-04-07T22:37:27.166Z,5.71
2023-04-07T22:39:54.926Z,5.82
2023-04-07T22:42:22.684Z,5.63
2023-04-07T22:44:50.549Z,5.56
2023-04-07T22:47:18.275Z,5.46
2023-04-07T22:49:46.575Z,5.41
2023-04-07T22:52:14.252Z,5.49
2023-04-07T22:54:41.975Z,5.53
2023-04-07T22:57:09.639Z,5.46
2023-04-07T22:59:37.639Z,5.32
2023-04-07T23:02:05.382Z,5.56
2023-04-07T23:04:33.217Z,5.43
2023-04-07T23:07:01.483Z,5.53
2023-04-07T23:09:29.263Z,5.12
2023-04-07T23:11:57.085Z,5.41
2023-04-07T23:14:24.813Z,5.41
2023-04-07T23:16:54.422Z,5.42
2023-04-07T23:19:22.334Z,5.31
2023-04-07T23:21:50.031Z,5.38
2023-04-07T23:24:17.841Z,5.37
2023-04-07T23:26:45.494Z,5.49
2023-04-07T23:29:13.196Z,5.49
2023-04-07T23:31:41.123Z,5.52
2023-04-07T23:34:08.873Z,5.21
2023-04-07T23:36:36.652Z,5.38
2023-04-07T23:39:04.335Z,5.34
2023-04-07T23:41:32.477Z,5.29
2023-04-07T23:44:00.186Z,5.41
2023-04-07T23:46:28.208Z,5.35
2023-04-07T23:48:56.088Z,5.34
2023-04-07T23:51:23.870Z,5.12
2023-04-07T23:53:51.618Z,5.25
2023-04-07T23:56:19.582Z,5.25
2023-04-07T23:58:48.314Z,5.27
